GCHI/VDE METAR and TAF weather

Enter ICAO airport designator
Station Type Date Time Source
GCHI METAR 2019/05/19 21:00 UTC NOAA

GCHI 192100Z AUTO 01018KT 340V040 9999 BKN033 20/16 Q1018


Station Type Date Time Source
GCHI Decoded METAR 2019/05/19 21:00 UTC NOAA

Hierro / Aeropuerto, Spain (GCHI) 27-49N 017-53W 32M
May 19, 2019 - 05:00 PM EDT / 2019.05.19 2100 UTC
Wind: from the N (010 degrees) at 21 MPH (18 KT) (direction variable):0
Visibility: greater than 7 mile(s):0
Sky conditions: mostly cloudy
Temperature: 68 F (20 C)
Dew Point: 60 F (16 C)
Relative Humidity: 77%
Pressure (altimeter): 30.06 in. Hg (1018 hPa)
ob: GCHI 192100Z AUTO 01018KT 340V040 9999 BKN033 20/16 Q1018
cycle: 21

Station Type Date Time Source
GCHI TAF 2019/05/19 21:00 UTC NOAA

TAF GCHI 192000Z 1921/2021 36016KT 9999 BKN030 TX22/2014Z TN19/2006Z

Example: see airport list